Time;durP1;ratioP1;P1;durP2;ratioP2;P2;SDS_P1;SDS_P2;PMS_P1;PMS_P2;Temp;Humidity;BMP_temperature;BMP_pressure;BME280_temperature;BME280_humidity;BME280_pressure;Samples;Min_cycle;Max_cycle;Signal;HPM_P1;HPM_P2
2023/07/11 00:00:51;;;;;;;8.10;4.68;;;25.30;99.90;;;;;;4864471;29;20098;-81
2023/07/11 00:03:17;;;;;;;11.02;5.07;;;25.20;99.90;;;;;;4864772;29;20494;-81
2023/07/11 00:06:00;;;;;;;9.27;5.55;;;25.20;99.90;;;;;;4861836;29;20485;-81
2023/07/11 00:08:27;;;;;;;8.20;5.38;;;25.10;99.90;;;;;;4862860;29;20504;-81
2023/07/11 00:10:54;;;;;;;6.88;5.35;;;25.10;99.90;;;;;;4852729;29;20078;-81
2023/07/11 00:13:21;;;;;;;10.38;5.00;;;25.10;99.90;;;;;;4847927;29;20072;-81
2023/07/11 00:16:02;;;;;;;9.35;5.25;;;25.00;99.90;;;;;;4863729;29;20515;-81
2023/07/11 00:18:30;;;;;;;12.48;5.20;;;25.00;99.90;;;;;;4846210;29;20053;-81
2023/07/11 00:20:57;;;;;;;8.65;5.03;;;25.00;99.90;;;;;;4862273;29;20080;-81
2023/07/11 00:23:24;;;;;;;7.93;5.28;;;25.00;99.90;;;;;;4864187;29;20045;-80
2023/07/11 00:25:51;;;;;;;6.40;4.88;;;24.90;99.90;;;;;;4861981;29;20093;-81
2023/07/11 00:28:19;;;;;;;7.30;4.85;;;24.90;99.90;;;;;;4847962;29;20049;-81
2023/07/11 00:30:47;;;;;;;8.38;5.43;;;24.90;99.90;;;;;;4862927;29;20135;-82
2023/07/11 00:33:14;;;;;;;8.27;5.10;;;24.80;99.90;;;;;;4864684;29;20057;-83
2023/07/11 00:35:44;;;;;;;8.90;4.75;;;24.80;99.90;;;;;;4865461;29;20057;-82
2023/07/11 00:38:12;;;;;;;12.90;5.35;;;24.80;99.90;;;;;;4865236;29;20053;-80
2023/07/11 00:40:41;;;;;;;7.93;5.50;;;24.80;99.90;;;;;;4865200;29;20149;-82
2023/07/11 00:43:14;;;;;;;9.23;5.60;;;24.70;99.90;;;;;;4866465;29;20388;-82
2023/07/11 00:46:13;;;;;;;9.88;5.00;;;24.70;99.90;;;;;;4865559;29;20061;-82
2023/07/11 00:48:50;;;;;;;9.77;5.03;;;24.70;99.90;;;;;;4865734;29;20057;-82
2023/07/11 00:51:21;;;;;;;5.57;5.07;;;24.70;99.90;;;;;;4865985;29;20143;-83
2023/07/11 00:53:49;;;;;;;12.93;6.78;;;24.70;99.90;;;;;;4863453;29;20049;-82
2023/07/11 00:56:23;;;;;;;8.60;5.25;;;24.60;99.90;;;;;;4865425;29;20084;-81
2023/07/11 00:58:51;;;;;;;8.90;4.95;;;24.60;99.90;;;;;;4848041;29;20079;-82
2023/07/11 01:01:19;;;;;;;9.13;5.13;;;24.60;99.90;;;;;;4865355;29;20065;-81
2023/07/11 01:03:48;;;;;;;5.63;4.85;;;24.50;99.90;;;;;;4864250;29;20132;-80
2023/07/11 01:06:19;;;;;;;10.38;4.88;;;24.50;99.90;;;;;;4864154;29;20054;-81
2023/07/11 01:08:48;;;;;;;8.70;4.95;;;24.50;99.90;;;;;;4852874;29;20121;-80
2023/07/11 01:11:16;;;;;;;6.93;4.78;;;24.50;99.90;;;;;;4847578;29;20215;-83
2023/07/11 01:13:43;;;;;;;8.88;5.50;;;24.50;99.90;;;;;;4860528;29;20488;-82
2023/07/11 01:16:10;;;;;;;7.97;4.97;;;24.50;99.90;;;;;;4851250;29;20045;-82
2023/07/11 01:18:38;;;;;;;9.95;5.72;;;24.40;99.90;;;;;;4863989;29;20050;-81
2023/07/11 01:21:05;;;;;;;9.07;5.40;;;24.40;99.90;;;;;;4863332;29;20503;-81
2023/07/11 01:23:33;;;;;;;8.68;5.50;;;24.40;99.90;;;;;;4845394;29;20110;-82
2023/07/11 01:26:07;;;;;;;11.52;5.60;;;24.40;99.90;;;;;;4864113;29;20053;-82
2023/07/11 01:28:34;;;;;;;7.70;5.18;;;24.30;99.90;;;;;;4864046;29;20045;-81
2023/07/11 01:31:03;;;;;;;9.23;5.28;;;24.30;99.90;;;;;;4863327;29;20078;-81
2023/07/11 01:33:31;;;;;;;9.10;5.20;;;24.30;99.90;;;;;;4856037;29;20537;-81
2023/07/11 01:35:58;;;;;;;7.45;5.32;;;24.20;99.90;;;;;;4861833;29;20495;-81
2023/07/11 01:38:25;;;;;;;8.23;5.28;;;24.20;99.90;;;;;;4860450;29;20061;-82
2023/07/11 01:40:52;;;;;;;8.98;5.43;;;24.20;99.90;;;;;;4862196;29;20527;-82
2023/07/11 01:43:20;;;;;;;7.50;5.22;;;24.20;99.90;;;;;;4863070;29;20046;-82
2023/07/11 01:45:47;;;;;;;12.52;6.43;;;24.20;99.90;;;;;;4861067;29;20077;-81
2023/07/11 01:48:14;;;;;;;9.18;5.68;;;24.10;99.90;;;;;;4859323;29;20070;-81
2023/07/11 01:50:41;;;;;;;8.32;6.18;;;24.10;99.90;;;;;;4845064;29;20077;-80
2023/07/11 01:53:07;;;;;;;9.02;5.55;;;24.00;99.90;;;;;;4851078;29;20065;-81
2023/07/11 01:55:34;;;;;;;9.35;5.43;;;24.00;99.90;;;;;;4862405;29;20102;-81
2023/07/11 01:58:01;;;;;;;9.13;5.72;;;24.00;99.90;;;;;;4862631;29;20060;-81
2023/07/11 02:00:27;;;;;;;10.70;5.78;;;24.00;99.90;;;;;;4862742;29;20451;-81
2023/07/11 02:02:54;;;;;;;11.20;5.90;;;23.90;99.90;;;;;;4859954;29;20057;-80
2023/07/11 02:05:21;;;;;;;9.32;5.40;;;23.90;99.90;;;;;;4862136;29;20105;-83
2023/07/11 02:07:48;;;;;;;8.43;5.45;;;23.90;99.90;;;;;;4840440;29;20045;-82
2023/07/11 02:10:15;;;;;;;6.88;5.43;;;23.90;99.90;;;;;;4862650;29;20084;-81
2023/07/11 02:12:42;;;;;;;9.52;5.97;;;23.90;99.90;;;;;;4864334;29;20053;-82
2023/07/11 02:15:09;;;;;;;8.40;6.10;;;23.90;99.90;;;;;;4864393;29;20089;-81
2023/07/11 02:17:35;;;;;;;9.40;6.32;;;23.90;99.90;;;;;;4863805;29;20101;-81
2023/07/11 02:20:03;;;;;;;8.63;5.63;;;23.80;99.90;;;;;;4863677;29;20059;-82
2023/07/11 02:22:29;;;;;;;9.00;5.18;;;23.80;99.90;;;;;;4863056;29;20089;-82
2023/07/11 02:24:56;;;;;;;12.07;5.70;;;23.80;99.90;;;;;;4863001;29;20404;-81
2023/07/11 02:27:23;;;;;;;8.45;5.38;;;23.80;99.90;;;;;;4860562;29;20077;-80
2023/07/11 02:29:49;;;;;;;13.00;5.55;;;23.70;99.90;;;;;;4862513;29;20499;-80
2023/07/11 02:32:16;;;;;;;7.15;5.97;;;23.70;99.90;;;;;;4862048;29;20080;-80
2023/07/11 02:34:43;;;;;;;10.85;5.63;;;23.70;99.90;;;;;;4844499;29;20089;-81
2023/07/11 02:37:09;;;;;;;6.97;6.28;;;23.60;99.90;;;;;;4860589;29;20096;-81
2023/07/11 02:39:36;;;;;;;8.68;5.13;;;23.60;99.90;;;;;;4861794;29;20073;-82
2023/07/11 02:42:04;;;;;;;8.50;5.60;;;23.60;99.90;;;;;;4860821;29;20061;-82
2023/07/11 02:44:31;;;;;;;8.82;5.90;;;23.60;99.90;;;;;;4862228;29;20469;-82
2023/07/11 02:46:57;;;;;;;9.38;5.22;;;23.60;99.90;;;;;;4859680;29;20113;-81
2023/07/11 02:49:24;;;;;;;11.35;5.78;;;23.60;99.90;;;;;;4862073;29;20516;-81
2023/07/11 02:51:51;;;;;;;8.13;5.53;;;23.60;99.90;;;;;;4861384;29;20050;-81
2023/07/11 02:54:17;;;;;;;11.23;6.03;;;23.60;99.90;;;;;;4844230;29;20095;-80
2023/07/11 02:56:44;;;;;;;9.88;6.45;;;23.50;99.90;;;;;;4861945;29;20049;-81
2023/07/11 02:59:11;;;;;;;8.98;5.65;;;23.50;99.90;;;;;;4844881;29;20058;-81
2023/07/11 03:01:37;;;;;;;8.18;5.95;;;23.50;99.90;;;;;;4856721;29;20694;-82
2023/07/11 03:04:04;;;;;;;11.40;6.07;;;23.50;99.90;;;;;;4867181;29;20054;-81
2023/07/11 03:06:31;;;;;;;12.48;6.10;;;23.40;99.90;;;;;;4867151;29;20117;-83
2023/07/11 03:08:58;;;;;;;8.05;5.88;;;23.40;99.90;;;;;;4864386;29;20144;-81
2023/07/11 03:11:24;;;;;;;8.32;5.45;;;23.40;99.90;;;;;;4866052;29;20181;-81
2023/07/11 03:13:51;;;;;;;7.05;6.35;;;23.40;99.90;;;;;;4865719;29;20050;-80
2023/07/11 03:16:18;;;;;;;9.93;6.30;;;23.40;99.90;;;;;;4863139;29;20049;-82
2023/07/11 03:18:44;;;;;;;7.55;5.72;;;23.40;99.90;;;;;;4865674;29;20049;-81
2023/07/11 03:21:11;;;;;;;9.23;6.03;;;23.30;99.90;;;;;;4865822;29;20085;-80
2023/07/11 03:23:38;;;;;;;12.00;6.43;;;23.30;99.90;;;;;;4865680;29;20113;-82
2023/07/11 03:26:04;;;;;;;10.63;6.03;;;23.30;99.90;;;;;;4865289;29;20064;-80
2023/07/11 03:28:32;;;;;;;9.00;5.97;;;23.20;99.90;;;;;;4865254;29;20073;-80
2023/07/11 03:30:59;;;;;;;9.20;5.43;;;23.20;99.90;;;;;;4857590;29;20114;-80
2023/07/11 03:33:25;;;;;;;9.15;5.85;;;23.20;99.90;;;;;;4865681;29;20089;-81
2023/07/11 03:35:52;;;;;;;10.77;5.88;;;23.20;99.90;;;;;;4865073;29;20053;-83
2023/07/11 03:38:19;;;;;;;8.88;5.60;;;23.20;99.90;;;;;;4864291;29;20060;-81
2023/07/11 03:40:47;;;;;;;8.73;6.05;;;23.20;99.90;;;;;;4864636;29;20101;-81
2023/07/11 03:43:14;;;;;;;10.50;6.15;;;23.20;99.90;;;;;;4865117;29;20107;-80
2023/07/11 03:45:45;;;;;;;7.15;6.05;;;23.10;99.90;;;;;;4864889;29;20065;-81
2023/07/11 03:48:14;;;;;;;7.75;5.95;;;23.10;99.90;;;;;;4864623;29;20046;-80
2023/07/11 03:50:41;;;;;;;7.85;5.38;;;23.10;99.90;;;;;;4864744;29;20049;-81
2023/07/11 03:53:08;;;;;;;10.18;6.50;;;23.10;99.90;;;;;;4866300;29;20050;-82
2023/07/11 03:55:35;;;;;;;7.97;5.57;;;23.10;99.90;;;;;;4863012;29;20082;-83
2023/07/11 03:58:02;;;;;;;9.65;5.65;;;23.10;99.90;;;;;;4866388;29;20113;-82
2023/07/11 04:00:28;;;;;;;8.35;5.93;;;23.10;99.90;;;;;;4849127;29;20053;-81
2023/07/11 04:02:55;;;;;;;13.43;5.85;;;23.10;99.90;;;;;;4865101;29;20476;-83
2023/07/11 04:05:22;;;;;;;6.70;5.45;;;23.10;99.90;;;;;;4864856;29;20052;-81
2023/07/11 04:07:49;;;;;;;8.32;5.63;;;23.10;99.90;;;;;;4864587;29;20049;-81
2023/07/11 04:10:16;;;;;;;6.88;6.07;;;23.10;99.90;;;;;;4864181;29;20045;-81
2023/07/11 04:12:43;;;;;;;10.70;5.65;;;23.10;99.90;;;;;;4864619;29;20567;-79
2023/07/11 04:15:10;;;;;;;11.57;5.95;;;23.10;99.90;;;;;;4847829;29;20084;-82
2023/07/11 04:17:37;;;;;;;9.15;5.72;;;23.10;99.90;;;;;;4847712;29;20050;-80
2023/07/11 04:20:04;;;;;;;8.55;5.35;;;23.10;99.90;;;;;;4862583;29;20053;-79
2023/07/11 04:22:31;;;;;;;8.68;5.82;;;23.10;99.90;;;;;;4863937;29;20091;-82
2023/07/11 04:24:58;;;;;;;8.13;5.30;;;23.10;99.90;;;;;;4862296;29;20121;-83
2023/07/11 04:27:25;;;;;;;12.88;5.88;;;23.10;99.90;;;;;;4863653;29;20050;-81
2023/07/11 04:29:52;;;;;;;11.30;5.63;;;23.10;99.90;;;;;;4863170;29;20079;-81
2023/07/11 04:32:19;;;;;;;6.78;5.18;;;23.20;99.90;;;;;;4863991;29;20077;-81
2023/07/11 04:34:45;;;;;;;8.32;5.78;;;23.20;99.90;;;;;;4861500;29;20050;-80
2023/07/11 04:37:12;;;;;;;8.48;5.85;;;23.20;99.90;;;;;;4863208;29;20050;-80
2023/07/11 04:39:40;;;;;;;8.65;5.63;;;23.20;99.90;;;;;;4864199;29;20102;-81
2023/07/11 04:42:07;;;;;;;8.55;5.78;;;23.20;99.90;;;;;;4857037;29;20128;-84
2023/07/11 04:44:34;;;;;;;9.50;5.75;;;23.30;99.90;;;;;;4866579;29;20510;-82
2023/07/11 04:47:00;;;;;;;9.48;5.50;;;23.30;99.90;;;;;;4861864;29;20043;-81
2023/07/11 04:49:28;;;;;;;6.80;5.90;;;23.30;99.90;;;;;;4865932;29;20056;-82
2023/07/11 04:51:55;;;;;;;13.85;6.15;;;23.40;99.90;;;;;;4861566;29;20049;-81
2023/07/11 04:54:22;;;;;;;9.95;6.32;;;23.40;99.90;;;;;;4861033;29;20085;-82
2023/07/11 04:56:58;;;;;;;;;;;23.40;99.90;;;;;;4864415;29;20049;-81
2023/07/11 04:59:26;;;;;;;10.23;5.93;;;23.50;99.90;;;;;;4864539;29;19924;-83
2023/07/11 05:01:53;;;;;;;7.45;5.78;;;23.60;99.90;;;;;;4853243;29;20049;-82
2023/07/11 05:04:20;;;;;;;10.82;5.97;;;23.70;99.90;;;;;;4862832;29;20052;-82
2023/07/11 05:06:47;;;;;;;13.80;5.72;;;23.80;99.90;;;;;;4863504;29;20050;-81
2023/07/11 05:09:16;;;;;;;10.90;6.55;;;23.90;99.90;;;;;;4847051;29;20053;-82
2023/07/11 05:11:43;;;;;;;10.52;5.20;;;24.00;99.90;;;;;;4856171;29;20053;-81
2023/07/11 05:14:10;;;;;;;8.10;5.13;;;24.10;99.90;;;;;;4862971;29;20054;-81
2023/07/11 05:16:37;;;;;;;11.85;6.00;;;24.30;99.90;;;;;;4864113;29;20057;-81
2023/07/11 05:19:04;;;;;;;10.25;5.57;;;24.40;99.90;;;;;;4865101;29;20081;-83
2023/07/11 05:21:31;;;;;;;7.72;5.50;;;24.50;99.90;;;;;;4864882;29;20508;-81
2023/07/11 05:23:58;;;;;;;10.48;5.95;;;24.70;99.90;;;;;;4864482;29;20049;-82
2023/07/11 05:26:25;;;;;;;9.30;6.18;;;24.80;99.90;;;;;;4863597;29;20045;-83
2023/07/11 05:28:51;;;;;;;7.95;5.75;;;24.90;99.90;;;;;;4864439;29;20084;-82
2023/07/11 05:31:18;;;;;;;9.30;5.45;;;25.00;99.90;;;;;;4864767;29;20057;-81
2023/07/11 05:33:45;;;;;;;9.55;5.78;;;25.10;99.90;;;;;;4865933;29;20050;-82
2023/07/11 05:36:32;;;;;;;9.50;6.13;;;25.10;99.90;;;;;;4864008;29;20061;-82
2023/07/11 05:39:00;;;;;;;11.90;5.72;;;25.20;99.90;;;;;;4863836;29;20059;-82
2023/07/11 05:41:27;;;;;;;7.53;5.50;;;25.30;99.90;;;;;;4864602;29;20045;-81
2023/07/11 05:43:55;;;;;;;9.80;6.30;;;25.40;99.90;;;;;;4864789;29;20199;-82
2023/07/11 05:46:25;;;;;;;6.85;5.78;;;25.50;99.90;;;;;;4847141;29;20049;-81
2023/07/11 05:48:54;;;;;;;11.55;6.28;;;25.50;99.90;;;;;;4864226;29;20042;-82
2023/07/11 05:51:22;;;;;;;9.20;6.47;;;25.60;99.90;;;;;;4863506;29;20065;-81
2023/07/11 05:53:49;;;;;;;8.32;5.50;;;25.80;99.90;;;;;;4863902;29;20503;-82
2023/07/11 05:56:17;;;;;;;12.68;5.80;;;25.90;99.90;;;;;;4863340;29;20109;-81
2023/07/11 05:58:45;;;;;;;8.50;5.60;;;26.10;99.90;;;;;;4860560;29;20092;-82
2023/07/11 06:01:15;;;;;;;7.05;5.45;;;26.20;99.90;;;;;;4862574;29;20434;-83
2023/07/11 06:03:45;;;;;;;8.23;5.97;;;26.30;99.90;;;;;;4863675;29;20495;-82
2023/07/11 06:06:17;;;;;;;9.98;5.75;;;26.30;99.90;;;;;;4863006;29;20485;-82
2023/07/11 06:08:44;;;;;;;7.47;5.32;;;26.30;99.90;;;;;;4860202;29;20049;-83
2023/07/11 06:11:11;;;;;;;7.32;5.68;;;26.40;99.90;;;;;;4862545;29;20057;-81
2023/07/11 06:13:39;;;;;;;10.80;6.25;;;26.40;99.90;;;;;;4864625;29;20106;-81
2023/07/11 06:16:12;;;;;;;7.97;5.75;;;26.30;99.90;;;;;;4863965;29;20125;-83
2023/07/11 06:18:39;;;;;;;13.57;6.78;;;26.30;99.90;;;;;;4864530;29;20057;-81
2023/07/11 06:21:08;;;;;;;10.98;5.80;;;26.30;99.90;;;;;;4846591;29;20054;-82
2023/07/11 06:23:35;;;;;;;14.23;6.18;;;26.20;99.90;;;;;;4865018;29;20052;-82
2023/07/11 06:26:03;;;;;;;7.40;5.80;;;26.20;99.90;;;;;;4861518;29;20070;-81
2023/07/11 06:28:31;;;;;;;9.38;5.60;;;26.20;99.90;;;;;;4864731;29;20128;-81
2023/07/11 06:31:00;;;;;;;10.70;6.18;;;26.20;99.90;;;;;;4844603;29;20057;-79
2023/07/11 06:33:29;;;;;;;8.73;5.93;;;26.10;99.90;;;;;;4864071;29;20065;-80
2023/07/11 06:35:57;;;;;;;8.85;5.65;;;26.20;99.90;;;;;;4863614;29;20057;-80
2023/07/11 06:38:24;;;;;;;8.50;5.95;;;26.20;99.90;;;;;;4866613;29;20058;-81
2023/07/11 06:40:53;;;;;;;8.90;6.32;;;26.20;99.90;;;;;;4864067;29;20049;-80
2023/07/11 06:43:21;;;;;;;9.65;6.05;;;26.30;99.90;;;;;;4866700;29;20060;-81
2023/07/11 06:45:49;;;;;;;8.70;6.22;;;26.30;99.90;;;;;;4867228;29;20046;-79
2023/07/11 06:48:18;;;;;;;8.40;5.93;;;26.30;99.90;;;;;;4866336;29;20106;-80
2023/07/11 06:50:56;;;;;;;10.73;6.22;;;26.30;99.90;;;;;;4866686;29;20121;-80
2023/07/11 06:53:26;;;;;;;8.55;6.50;;;26.30;99.90;;;;;;4867298;29;20503;-80
2023/07/11 06:55:54;;;;;;;11.48;5.90;;;26.40;99.90;;;;;;4863367;29;20053;-79
2023/07/11 06:58:21;;;;;;;9.50;6.38;;;26.40;99.90;;;;;;4866960;29;20057;-80
2023/07/11 07:00:53;;;;;;;11.10;6.75;;;26.40;99.90;;;;;;4867115;29;20080;-79
2023/07/11 07:03:21;;;;;;;8.38;5.97;;;26.40;99.90;;;;;;4866306;29;20053;-81
2023/07/11 07:05:50;;;;;;;7.00;5.95;;;26.40;99.90;;;;;;4865297;29;20485;-81
2023/07/11 07:08:17;;;;;;;11.50;5.50;;;26.40;99.90;;;;;;4855692;29;20072;-80
2023/07/11 07:10:45;;;;;;;8.50;6.13;;;26.40;99.90;;;;;;4866847;29;20400;-81
2023/07/11 07:13:13;;;;;;;12.55;6.57;;;26.40;99.90;;;;;;4867265;29;20057;-80
2023/07/11 07:15:40;;;;;;;8.43;6.47;;;26.40;99.90;;;;;;4870243;29;20045;-81
2023/07/11 07:18:06;;;;;;;8.85;5.47;;;26.50;99.90;;;;;;4874177;29;20054;-80
2023/07/11 07:20:34;;;;;;;8.23;6.05;;;26.50;99.90;;;;;;4857771;29;20045;-82
2023/07/11 07:23:17;;;;;;;9.27;5.78;;;26.50;99.90;;;;;;4873779;29;20077;-83
2023/07/11 07:25:53;;;;;;;9.20;5.65;;;26.50;99.90;;;;;;4872963;29;20049;-83
2023/07/11 07:28:21;;;;;;;9.75;4.93;;;26.50;99.90;;;;;;4873115;29;20496;-79
2023/07/11 07:30:49;;;;;;;6.50;4.85;;;26.50;99.90;;;;;;4873673;29;20045;-82
2023/07/11 07:33:16;;;;;;;13.80;5.20;;;26.50;99.90;;;;;;4871435;29;20078;-82
2023/07/11 07:35:43;;;;;;;7.35;5.45;;;26.60;99.90;;;;;;4872635;29;20102;-82
2023/07/11 07:38:10;;;;;;;10.27;5.57;;;26.60;99.90;;;;;;4872806;29;20190;-83
2023/07/11 07:40:38;;;;;;;8.80;6.05;;;26.60;99.90;;;;;;4873685;29;20479;-82
2023/07/11 07:43:04;;;;;;;9.27;5.15;;;26.60;99.90;;;;;;4871236;29;20511;-81
2023/07/11 07:45:31;;;;;;;10.02;5.75;;;26.70;99.90;;;;;;4872296;29;20078;-83
2023/07/11 07:47:58;;;;;;;15.13;5.80;;;26.70;99.90;;;;;;4853463;29;20046;-82
2023/07/11 07:50:25;;;;;;;11.07;5.28;;;26.70;99.90;;;;;;4869949;29;20073;-79
2023/07/11 07:52:51;;;;;;;9.75;5.80;;;26.70;99.90;;;;;;4873167;29;20571;-83
2023/07/11 07:55:18;;;;;;;8.57;4.80;;;26.80;99.90;;;;;;4872763;29;20057;-81
2023/07/11 07:57:45;;;;;;;13.32;6.03;;;26.80;99.90;;;;;;4874460;29;20053;-82
2023/07/11 08:00:12;;;;;;;7.30;5.60;;;26.90;99.90;;;;;;4874243;29;20057;-81
2023/07/11 08:02:42;;;;;;;9.50;5.78;;;26.90;99.90;;;;;;4871148;29;20507;-82
2023/07/11 08:05:09;;;;;;;9.20;5.63;;;26.90;99.90;;;;;;4870645;29;20041;-83
2023/07/11 08:07:36;;;;;;;9.38;5.68;;;26.90;99.90;;;;;;4873151;29;20065;-82
2023/07/11 08:10:05;;;;;;;8.05;5.53;;;27.00;99.90;;;;;;4872546;29;20050;-83
2023/07/11 08:12:31;;;;;;;12.77;5.90;;;27.00;99.90;;;;;;4871718;29;20472;-81
2023/07/11 08:14:58;;;;;;;6.45;5.53;;;27.00;99.90;;;;;;4873166;29;20046;-83
2023/07/11 08:17:25;;;;;;;7.65;5.35;;;27.10;99.90;;;;;;4870214;29;20097;-82
2023/07/11 08:19:52;;;;;;;11.63;6.07;;;27.10;99.90;;;;;;4862385;29;20050;-82
2023/07/11 08:22:18;;;;;;;8.52;4.85;;;27.10;99.90;;;;;;4869667;29;20113;-84
2023/07/11 08:24:45;;;;;;;10.25;5.93;;;27.10;99.90;;;;;;4870098;29;20051;-84
2023/07/11 08:27:12;;;;;;;10.77;5.63;;;27.10;99.90;;;;;;4872226;29;20049;-82
2023/07/11 08:29:44;;;;;;;8.38;6.15;;;27.10;99.90;;;;;;4868961;29;20431;-84
2023/07/11 08:32:12;;;;;;;5.97;5.30;;;27.10;99.90;;;;;;4871903;29;20098;-83
2023/07/11 08:34:40;;;;;;;12.10;5.57;;;27.20;99.90;;;;;;4869385;29;20053;-83
2023/07/11 08:37:07;;;;;;;14.80;7.05;;;27.20;99.90;;;;;;4872219;29;20419;-84
2023/07/11 08:39:35;;;;;;;15.65;6.47;;;27.20;99.90;;;;;;4846984;29;20058;-79
2023/07/11 08:42:12;;;;;;;12.05;5.85;;;27.20;99.90;;;;;;4872545;29;20046;-83
2023/07/11 08:45:02;;;;;;;9.98;6.28;;;27.30;99.90;;;;;;4876716;29;20046;-83
2023/07/11 08:47:37;;;;;;;10.98;5.57;;;27.30;99.90;;;;;;4870165;29;20286;-83
2023/07/11 08:50:21;;;;;;;9.05;5.80;;;27.30;99.90;;;;;;4869180;29;20117;-82
2023/07/11 08:53:07;;;;;;;10.90;6.10;;;27.30;99.90;;;;;;4871913;29;20045;-81
2023/07/11 08:55:37;;;;;;;7.53;5.78;;;27.40;99.90;;;;;;4866383;29;20089;-82
2023/07/11 08:58:24;;;;;;;16.92;5.90;;;27.40;99.90;;;;;;4851742;29;20057;-83
2023/07/11 09:00:52;;;;;;;8.00;5.68;;;27.40;99.90;;;;;;4870681;29;20101;-83
2023/07/11 09:03:55;;;;;;;8.90;6.05;;;27.50;99.90;;;;;;4872753;29;20057;-83
2023/07/11 09:06:30;;;;;;;10.45;5.78;;;27.50;99.90;;;;;;4833696;29;20484;-82
2023/07/11 09:08:57;;;;;;;12.10;6.35;;;27.50;99.90;;;;;;4867184;29;20496;-84
2023/07/11 09:11:33;;;;;;;7.47;6.25;;;27.60;99.90;;;;;;4871402;29;20105;-82
2023/07/11 09:14:22;;;;;;;11.02;5.90;;;27.60;99.90;;;;;;4861366;29;20081;-83
2023/07/11 09:17:02;;;;;;;14.57;6.05;;;27.70;99.90;;;;;;4872964;29;20057;-84
2023/07/11 09:19:57;;;;;;;16.75;6.60;;;27.70;99.90;;;;;;4872712;29;20049;-83
2023/07/11 09:22:58;;;;;;;9.15;6.13;;;27.80;99.90;;;;;;4871978;29;20114;-83
2023/07/11 09:25:37;;;;;;;9.38;6.20;;;27.80;99.90;;;;;;4870706;29;20050;-83
2023/07/11 09:28:24;;;;;;;10.40;5.90;;;27.90;99.90;;;;;;4870847;29;20659;-83
2023/07/11 09:30:57;;;;;;;9.60;6.38;;;28.00;99.90;;;;;;4870181;29;20453;-83
2023/07/11 09:33:30;;;;;;;6.88;5.88;;;28.00;99.90;;;;;;4868544;29;20065;-83
2023/07/11 09:35:59;;;;;;;10.52;5.82;;;28.00;99.90;;;;;;4871440;29;20046;-83
2023/07/11 09:38:34;;;;;;;10.25;5.72;;;28.10;99.90;;;;;;4869807;29;20050;-82
2023/07/11 09:41:08;;;;;;;11.85;6.72;;;28.20;99.90;;;;;;4866663;29;20069;-83
2023/07/11 09:43:35;;;;;;;7.15;5.97;;;28.20;99.90;;;;;;4870004;29;20049;-82
2023/07/11 09:46:09;;;;;;;9.35;6.45;;;28.30;99.90;;;;;;4870409;29;20102;-83
2023/07/11 09:48:37;;;;;;;13.77;6.20;;;28.30;99.90;;;;;;4867811;29;20050;-83
2023/07/11 09:51:36;;;;;;;10.23;6.18;;;28.40;99.90;;;;;;4851449;29;20102;-80
2023/07/11 09:54:20;;;;;;;12.32;6.30;;;28.40;99.90;;;;;;4866310;29;20056;-83
2023/07/11 09:56:48;;;;;;;6.63;5.80;;;28.50;99.90;;;;;;4867531;29;20060;-84
2023/07/11 09:59:17;;;;;;;9.13;5.95;;;28.60;99.90;;;;;;4865965;29;20117;-83
2023/07/11 10:01:50;;;;;;;9.85;6.25;;;28.70;99.90;;;;;;4868470;29;20133;-84
2023/07/11 10:04:22;;;;;;;11.80;6.22;;;28.70;99.90;;;;;;4867197;29;20515;-82
2023/07/11 10:06:55;;;;;;;10.98;5.40;;;28.70;99.90;;;;;;4863294;29;20080;-83
2023/07/11 10:09:33;;;;;;;8.52;5.32;;;28.90;99.90;;;;;;4866273;29;20049;-83
2023/07/11 10:12:11;;;;;;;9.75;5.20;;;28.90;99.90;;;;;;4866411;29;20323;-83
2023/07/11 10:14:47;;;;;;;7.78;5.25;;;29.00;99.90;;;;;;4868697;29;20053;-83
2023/07/11 10:17:22;;;;;;;8.20;4.90;;;29.10;99.90;;;;;;4863679;29;20057;-83
2023/07/11 10:19:53;;;;;;;6.75;4.93;;;29.20;99.90;;;;;;4867044;29;20468;-84
2023/07/11 10:22:36;;;;;;;9.00;4.93;;;29.20;99.90;;;;;;4868393;29;20057;-83
2023/07/11 10:25:16;;;;;;;8.57;4.90;;;29.30;99.90;;;;;;4868258;29;20056;-82
2023/07/11 10:27:50;;;;;;;7.35;4.53;;;29.30;99.90;;;;;;4867033;29;20101;-83
2023/07/11 10:30:25;;;;;;;11.40;4.50;;;29.40;99.90;;;;;;4853209;29;20050;-83
2023/07/11 10:33:00;;;;;;;12.13;6.15;;;29.40;99.90;;;;;;4866860;29;20056;-84
2023/07/11 10:35:39;;;;;;;6.85;4.80;;;29.40;99.90;;;;;;4865547;29;20517;-83
2023/07/11 10:38:24;;;;;;;6.65;4.95;;;29.50;99.90;;;;;;4871209;29;20056;-84
2023/07/11 10:40:56;;;;;;;6.45;4.93;;;29.50;99.90;;;;;;4869982;29;20049;-83
2023/07/11 10:43:28;;;;;;;5.75;4.40;;;29.60;99.90;;;;;;4866249;29;20491;-83
2023/07/11 10:46:04;;;;;;;4.93;4.43;;;29.60;99.90;;;;;;4868254;29;20050;-82
2023/07/11 10:48:32;;;;;;;5.88;4.72;;;29.70;99.90;;;;;;4868402;29;20050;-84
2023/07/11 10:51:03;;;;;;;9.10;5.15;;;29.70;99.90;;;;;;4866857;29;20046;-83
2023/07/11 10:53:44;;;;;;;9.13;5.40;;;29.80;99.90;;;;;;4864815;29;20049;-82
2023/07/11 10:56:24;;;;;;;8.63;4.97;;;29.80;99.90;;;;;;4866664;29;20113;-81
2023/07/11 10:58:53;;;;;;;8.07;4.75;;;29.90;99.90;;;;;;4867594;29;20049;-82
2023/07/11 11:01:23;;;;;;;7.32;4.72;;;29.90;99.90;;;;;;4868818;29;20462;-80
2023/07/11 11:03:55;;;;;;;;;;;30.00;99.90;;;;;;4871544;29;20052;-82
2023/07/11 11:06:50;;;;;;;7.35;4.93;;;30.00;99.90;;;;;;4868575;29;20165;-83
2023/07/11 11:09:51;;;;;;;8.70;5.00;;;30.10;99.90;;;;;;4864999;29;20143;-83
2023/07/11 11:12:40;;;;;;;8.23;5.68;;;30.10;99.90;;;;;;4858766;29;20078;-82
2023/07/11 11:15:21;;;;;;;10.32;4.90;;;30.10;99.90;;;;;;4869025;29;20058;-83
2023/07/11 11:18:01;;;;;;;9.50;5.13;;;30.10;99.90;;;;;;4870132;29;20053;-83
2023/07/11 11:20:40;;;;;;;12.65;6.03;;;30.20;99.90;;;;;;4867741;29;20176;-81
2023/07/11 11:23:42;;;;;;;11.20;5.30;;;30.20;99.90;;;;;;4867674;29;20059;-82
2023/07/11 11:26:22;;;;;;;7.72;5.00;;;30.20;99.90;;;;;;4853218;29;20077;-84
2023/07/11 11:29:17;;;;;;;10.02;5.68;;;30.30;99.90;;;;;;4868566;29;20045;-81
2023/07/11 11:32:15;;;;;;;9.63;5.40;;;30.30;99.90;;;;;;4869100;29;20102;-83
2023/07/11 11:34:55;;;;;;;7.53;4.65;;;30.40;99.90;;;;;;4851950;29;20054;-83
2023/07/11 11:38:04;;;;;;;8.63;5.25;;;30.40;99.90;;;;;;4868299;29;20045;-83
2023/07/11 11:40:36;;;;;;;11.32;5.30;;;30.30;99.90;;;;;;4872370;29;20423;-83
2023/07/11 11:43:09;;;;;;;16.33;5.25;;;30.40;99.90;;;;;;4869477;29;20110;-83
2023/07/11 11:45:40;;;;;;;7.15;5.28;;;30.40;99.90;;;;;;4871476;29;20049;-83
2023/07/11 11:48:28;;;;;;;8.52;5.68;;;30.40;99.90;;;;;;4866540;29;20136;-84
2023/07/11 11:51:01;;;;;;;7.32;5.43;;;30.50;99.90;;;;;;4868067;29;20526;-82
2023/07/11 11:53:46;;;;;;;13.65;5.88;;;30.50;99.90;;;;;;4867456;29;20073;-83
2023/07/11 11:56:19;;;;;;;9.73;5.38;;;30.50;99.90;;;;;;4868429;29;20086;-84
2023/07/11 11:58:56;;;;;;;9.38;5.60;;;30.50;99.90;;;;;;4868250;29;20084;-83
2023/07/11 12:01:49;;;;;;;7.22;5.47;;;30.50;99.90;;;;;;4853512;29;20053;-83
2023/07/11 12:04:28;;;;;;;12.45;5.90;;;30.60;99.90;;;;;;4869938;29;20053;-82
2023/07/11 12:07:10;;;;;;;6.70;5.63;;;30.60;99.90;;;;;;4870415;29;20045;-84
2023/07/11 12:09:53;;;;;;;8.50;5.40;;;30.60;99.90;;;;;;4873496;29;20049;-84
2023/07/11 12:12:23;;;;;;;9.15;5.22;;;30.60;99.90;;;;;;4871764;29;20049;-84
2023/07/11 12:14:51;;;;;;;11.73;5.40;;;30.70;99.90;;;;;;4854667;29;20527;-83
2023/07/11 12:17:32;;;;;;;8.48;5.00;;;30.70;99.90;;;;;;4870621;29;20057;-82
2023/07/11 12:19:59;;;;;;;10.40;5.75;;;30.70;99.90;;;;;;4870563;29;20055;-83
2023/07/11 12:22:38;;;;;;;9.40;4.97;;;30.70;99.90;;;;;;4870858;29;20054;-84
2023/07/11 12:25:28;;;;;;;7.50;5.38;;;30.80;99.90;;;;;;4873862;29;20066;-83
2023/07/11 12:28:01;;;;;;;8.50;5.47;;;30.80;99.90;;;;;;4873199;29;20046;-80
2023/07/11 12:30:43;;;;;;;12.15;6.03;;;30.90;99.90;;;;;;4870123;29;20086;-83
2023/07/11 12:33:30;;;;;;;8.88;5.57;;;30.90;99.90;;;;;;4874911;29;20113;-84
2023/07/11 12:36:06;;;;;;;8.10;5.03;;;30.90;99.90;;;;;;4872154;29;20082;-82
2023/07/11 12:38:46;;;;;;;9.27;5.28;;;31.00;99.90;;;;;;4874428;29;20065;-83
2023/07/11 12:41:27;;;;;;;8.27;5.38;;;31.00;99.90;;;;;;4871963;29;20058;-83
2023/07/11 12:44:13;;;;;;;7.22;5.18;;;31.00;99.90;;;;;;4872837;29;20082;-83
2023/07/11 12:46:41;;;;;;;;;;;31.10;99.90;;;;;;4871456;29;20495;-83
2023/07/11 12:49:28;;;;;;;8.13;5.10;;;31.10;99.90;;;;;;4870577;29;20533;-83
2023/07/11 12:52:16;;;;;;;10.63;5.18;;;31.20;99.90;;;;;;4866376;29;20105;-82
2023/07/11 12:54:43;;;;;;;12.48;6.18;;;31.20;99.90;;;;;;4867915;29;20053;-84
2023/07/11 12:57:19;;;;;;;10.27;6.05;;;31.20;99.90;;;;;;4868016;29;20062;-83
2023/07/11 12:59:48;;;;;;;8.85;5.70;;;31.20;99.90;;;;;;4866707;29;20064;-82
2023/07/11 13:02:22;;;;;;;9.55;5.47;;;31.30;99.90;;;;;;4869162;29;20053;-84
2023/07/11 13:04:58;;;;;;;8.65;5.32;;;31.40;99.90;;;;;;4866333;29;20053;-84
2023/07/11 13:07:28;;;;;;;8.00;5.40;;;31.40;99.90;;;;;;4865258;29;20056;-81